sensor_id;sensor_type;location;lat;lon;timestamp;P1;durP1;ratioP1;P2;durP2;ratioP2
29380;SDS011;16364;52.490;13.326;2023-06-26T00:01:32;9.77;;;8.97;;
29380;SDS011;16364;52.490;13.326;2023-06-26T00:03:57;10.70;;;9.77;;
29380;SDS011;16364;52.490;13.326;2023-06-26T00:06:23;11.20;;;10.30;;
29380;SDS011;16364;52.490;13.326;2023-06-26T00:08:49;13.57;;;12.13;;
29380;SDS011;16364;52.490;13.326;2023-06-26T00:11:15;11.60;;;10.40;;
29380;SDS011;16364;52.490;13.326;2023-06-26T00:13:40;11.70;;;10.60;;
29380;SDS011;16364;52.490;13.326;2023-06-26T00:16:05;11.37;;;10.43;;
29380;SDS011;16364;52.490;13.326;2023-06-26T00:18:30;11.97;;;10.97;;
29380;SDS011;16364;52.490;13.326;2023-06-26T00:20:56;11.17;;;10.17;;
29380;SDS011;16364;52.490;13.326;2023-06-26T00:23:21;9.73;;;8.83;;
29380;SDS011;16364;52.490;13.326;2023-06-26T00:25:46;9.93;;;8.97;;
29380;SDS011;16364;52.490;13.326;2023-06-26T00:28:12;9.77;;;8.97;;
29380;SDS011;16364;52.490;13.326;2023-06-26T00:30:37;11.10;;;10.03;;
29380;SDS011;16364;52.490;13.326;2023-06-26T00:33:02;10.23;;;9.33;;
29380;SDS011;16364;52.490;13.326;2023-06-26T00:35:27;10.47;;;9.57;;
29380;SDS011;16364;52.490;13.326;2023-06-26T00:37:53;9.90;;;9.00;;
29380;SDS011;16364;52.490;13.326;2023-06-26T00:40:18;10.03;;;9.00;;
29380;SDS011;16364;52.490;13.326;2023-06-26T00:42:43;10.83;;;9.83;;
29380;SDS011;16364;52.490;13.326;2023-06-26T00:45:09;11.43;;;10.33;;
29380;SDS011;16364;52.490;13.326;2023-06-26T00:47:34;9.57;;;8.73;;
29380;SDS011;16364;52.490;13.326;2023-06-26T00:49:59;9.00;;;8.27;;
29380;SDS011;16364;52.490;13.326;2023-06-26T00:52:25;9.70;;;8.70;;
29380;SDS011;16364;52.490;13.326;2023-06-26T00:54:50;8.67;;;7.97;;
29380;SDS011;16364;52.490;13.326;2023-06-26T00:57:16;10.77;;;9.77;;
29380;SDS011;16364;52.490;13.326;2023-06-26T00:59:41;10.87;;;9.77;;
29380;SDS011;16364;52.490;13.326;2023-06-26T01:02:07;10.33;;;9.47;;
29380;SDS011;16364;52.490;13.326;2023-06-26T01:04:32;10.23;;;9.30;;
29380;SDS011;16364;52.490;13.326;2023-06-26T01:06:58;9.57;;;8.13;;
29380;SDS011;16364;52.490;13.326;2023-06-26T01:09:24;8.87;;;8.17;;
29380;SDS011;16364;52.490;13.326;2023-06-26T01:11:50;10.10;;;8.90;;
29380;SDS011;16364;52.490;13.326;2023-06-26T01:14:15;10.97;;;9.93;;
29380;SDS011;16364;52.490;13.326;2023-06-26T01:16:41;9.30;;;8.37;;
29380;SDS011;16364;52.490;13.326;2023-06-26T01:19:13;9.07;;;8.27;;
29380;SDS011;16364;52.490;13.326;2023-06-26T01:21:42;10.33;;;9.37;;
29380;SDS011;16364;52.490;13.326;2023-06-26T01:24:09;9.20;;;8.40;;
29380;SDS011;16364;52.490;13.326;2023-06-26T01:26:39;9.60;;;8.83;;
29380;SDS011;16364;52.490;13.326;2023-06-26T01:29:06;10.30;;;9.37;;
29380;SDS011;16364;52.490;13.326;2023-06-26T01:31:32;10.67;;;9.80;;
29380;SDS011;16364;52.490;13.326;2023-06-26T01:33:58;11.30;;;10.30;;
29380;SDS011;16364;52.490;13.326;2023-06-26T01:36:24;12.17;;;11.10;;
29380;SDS011;16364;52.490;13.326;2023-06-26T01:38:49;10.87;;;9.97;;
29380;SDS011;16364;52.490;13.326;2023-06-26T01:41:16;10.00;;;9.20;;
29380;SDS011;16364;52.490;13.326;2023-06-26T01:44:17;10.07;;;9.07;;
29380;SDS011;16364;52.490;13.326;2023-06-26T01:46:40;12.60;;;11.37;;
29380;SDS011;16364;52.490;13.326;2023-06-26T01:51:42;12.33;;;11.13;;
29380;SDS011;16364;52.490;13.326;2023-06-26T01:54:12;11.30;;;10.30;;
29380;SDS011;16364;52.490;13.326;2023-06-26T01:56:38;11.90;;;10.90;;
29380;SDS011;16364;52.490;13.326;2023-06-26T01:59:04;13.00;;;11.70;;
29380;SDS011;16364;52.490;13.326;2023-06-26T02:01:30;11.50;;;10.40;;
29380;SDS011;16364;52.490;13.326;2023-06-26T02:03:58;12.17;;;10.93;;
29380;SDS011;16364;52.490;13.326;2023-06-26T02:06:23;11.60;;;10.60;;
29380;SDS011;16364;52.490;13.326;2023-06-26T02:08:49;10.90;;;9.90;;
29380;SDS011;16364;52.490;13.326;2023-06-26T02:11:14;12.13;;;11.03;;
29380;SDS011;16364;52.490;13.326;2023-06-26T02:13:39;11.60;;;10.63;;
29380;SDS011;16364;52.490;13.326;2023-06-26T02:16:04;11.83;;;9.57;;
29380;SDS011;16364;52.490;13.326;2023-06-26T02:18:30;13.63;;;11.60;;
29380;SDS011;16364;52.490;13.326;2023-06-26T02:20:55;12.40;;;11.30;;
29380;SDS011;16364;52.490;13.326;2023-06-26T02:23:20;12.30;;;11.20;;
29380;SDS011;16364;52.490;13.326;2023-06-26T02:25:45;11.67;;;10.47;;
29380;SDS011;16364;52.490;13.326;2023-06-26T02:28:11;10.73;;;9.83;;
29380;SDS011;16364;52.490;13.326;2023-06-26T02:30:36;11.17;;;10.17;;
29380;SDS011;16364;52.490;13.326;2023-06-26T02:33:01;11.40;;;10.30;;
29380;SDS011;16364;52.490;13.326;2023-06-26T02:35:27;10.90;;;9.93;;
29380;SDS011;16364;52.490;13.326;2023-06-26T02:37:52;12.30;;;11.20;;
29380;SDS011;16364;52.490;13.326;2023-06-26T02:40:17;11.27;;;10.27;;
29380;SDS011;16364;52.490;13.326;2023-06-26T02:42:43;12.10;;;11.00;;
29380;SDS011;16364;52.490;13.326;2023-06-26T02:45:08;13.30;;;11.23;;
29380;SDS011;16364;52.490;13.326;2023-06-26T02:47:34;11.90;;;10.80;;
29380;SDS011;16364;52.490;13.326;2023-06-26T02:49:59;11.33;;;10.33;;
29380;SDS011;16364;52.490;13.326;2023-06-26T02:52:24;12.27;;;11.07;;
29380;SDS011;16364;52.490;13.326;2023-06-26T02:54:49;11.73;;;10.73;;
29380;SDS011;16364;52.490;13.326;2023-06-26T02:57:15;11.93;;;11.03;;
29380;SDS011;16364;52.490;13.326;2023-06-26T02:59:42;11.20;;;10.30;;
29380;SDS011;16364;52.490;13.326;2023-06-26T03:02:07;11.23;;;10.20;;
29380;SDS011;16364;52.490;13.326;2023-06-26T03:04:32;13.20;;;12.00;;
29380;SDS011;16364;52.490;13.326;2023-06-26T03:07:01;12.27;;;11.17;;
29380;SDS011;16364;52.490;13.326;2023-06-26T03:09:26;11.43;;;10.33;;
29380;SDS011;16364;52.490;13.326;2023-06-26T03:11:51;11.73;;;10.80;;
29380;SDS011;16364;52.490;13.326;2023-06-26T03:14:18;12.30;;;11.10;;
29380;SDS011;16364;52.490;13.326;2023-06-26T03:16:43;13.40;;;12.30;;
29380;SDS011;16364;52.490;13.326;2023-06-26T03:19:08;13.30;;;12.10;;
29380;SDS011;16364;52.490;13.326;2023-06-26T03:21:34;11.80;;;10.80;;
29380;SDS011;16364;52.490;13.326;2023-06-26T03:23:59;12.10;;;11.00;;
29380;SDS011;16364;52.490;13.326;2023-06-26T03:26:24;13.03;;;11.73;;
29380;SDS011;16364;52.490;13.326;2023-06-26T03:28:52;12.70;;;11.67;;
29380;SDS011;16364;52.490;13.326;2023-06-26T03:31:18;12.60;;;11.43;;
29380;SDS011;16364;52.490;13.326;2023-06-26T03:33:43;12.63;;;10.87;;
29380;SDS011;16364;52.490;13.326;2023-06-26T03:36:09;12.40;;;11.10;;
29380;SDS011;16364;52.490;13.326;2023-06-26T03:38:34;11.53;;;10.63;;
29380;SDS011;16364;52.490;13.326;2023-06-26T03:40:59;11.80;;;10.90;;
29380;SDS011;16364;52.490;13.326;2023-06-26T03:43:24;14.03;;;12.17;;
29380;SDS011;16364;52.490;13.326;2023-06-26T03:45:50;12.10;;;11.07;;
29380;SDS011;16364;52.490;13.326;2023-06-26T03:48:15;13.97;;;12.67;;
29380;SDS011;16364;52.490;13.326;2023-06-26T03:50:40;13.70;;;12.57;;
29380;SDS011;16364;52.490;13.326;2023-06-26T03:53:05;12.77;;;11.60;;
29380;SDS011;16364;52.490;13.326;2023-06-26T03:55:30;12.07;;;11.07;;
29380;SDS011;16364;52.490;13.326;2023-06-26T03:57:56;11.90;;;10.90;;
29380;SDS011;16364;52.490;13.326;2023-06-26T04:00:21;12.37;;;11.27;;
29380;SDS011;16364;52.490;13.326;2023-06-26T04:02:46;10.53;;;9.67;;
29380;SDS011;16364;52.490;13.326;2023-06-26T04:05:12;12.93;;;11.77;;
29380;SDS011;16364;52.490;13.326;2023-06-26T04:07:37;13.50;;;12.40;;
29380;SDS011;16364;52.490;13.326;2023-06-26T04:10:02;13.10;;;11.93;;
29380;SDS011;16364;52.490;13.326;2023-06-26T04:12:28;13.53;;;12.27;;
29380;SDS011;16364;52.490;13.326;2023-06-26T04:14:53;13.03;;;11.83;;
29380;SDS011;16364;52.490;13.326;2023-06-26T04:17:18;11.73;;;10.73;;
29380;SDS011;16364;52.490;13.326;2023-06-26T04:19:43;12.70;;;11.67;;
29380;SDS011;16364;52.490;13.326;2023-06-26T04:22:09;12.80;;;11.60;;
29380;SDS011;16364;52.490;13.326;2023-06-26T04:24:34;12.70;;;11.60;;
29380;SDS011;16364;52.490;13.326;2023-06-26T04:26:59;12.40;;;11.30;;
29380;SDS011;16364;52.490;13.326;2023-06-26T04:29:27;12.73;;;11.63;;
29380;SDS011;16364;52.490;13.326;2023-06-26T04:31:53;14.73;;;13.33;;
29380;SDS011;16364;52.490;13.326;2023-06-26T04:34:22;17.37;;;15.67;;
29380;SDS011;16364;52.490;13.326;2023-06-26T04:36:47;14.67;;;13.20;;
29380;SDS011;16364;52.490;13.326;2023-06-26T04:39:13;12.70;;;11.63;;
29380;SDS011;16364;52.490;13.326;2023-06-26T04:41:39;12.73;;;11.63;;
29380;SDS011;16364;52.490;13.326;2023-06-26T04:44:05;13.03;;;11.73;;
29380;SDS011;16364;52.490;13.326;2023-06-26T04:46:30;12.30;;;11.20;;
29380;SDS011;16364;52.490;13.326;2023-06-26T04:48:55;12.00;;;11.07;;
29380;SDS011;16364;52.490;13.326;2023-06-26T04:51:23;11.80;;;10.90;;
29380;SDS011;16364;52.490;13.326;2023-06-26T04:53:48;11.40;;;10.50;;
29380;SDS011;16364;52.490;13.326;2023-06-26T04:56:13;12.83;;;11.63;;
29380;SDS011;16364;52.490;13.326;2023-06-26T04:58:38;11.60;;;10.70;;
29380;SDS011;16364;52.490;13.326;2023-06-26T05:01:04;10.97;;;9.97;;
29380;SDS011;16364;52.490;13.326;2023-06-26T05:03:31;11.53;;;10.53;;
29380;SDS011;16364;52.490;13.326;2023-06-26T05:05:57;11.20;;;10.20;;
29380;SDS011;16364;52.490;13.326;2023-06-26T05:08:23;12.80;;;11.53;;
29380;SDS011;16364;52.490;13.326;2023-06-26T05:10:48;13.00;;;11.90;;
29380;SDS011;16364;52.490;13.326;2023-06-26T05:13:14;14.17;;;12.67;;
29380;SDS011;16364;52.490;13.326;2023-06-26T05:15:42;12.97;;;11.87;;
29380;SDS011;16364;52.490;13.326;2023-06-26T05:18:07;12.40;;;11.23;;
29380;SDS011;16364;52.490;13.326;2023-06-26T05:20:33;12.30;;;11.30;;
29380;SDS011;16364;52.490;13.326;2023-06-26T05:23:02;11.57;;;10.57;;
29380;SDS011;16364;52.490;13.326;2023-06-26T05:25:28;11.47;;;10.57;;
29380;SDS011;16364;52.490;13.326;2023-06-26T05:27:54;12.17;;;11.03;;
29380;SDS011;16364;52.490;13.326;2023-06-26T05:30:20;13.30;;;12.10;;
29380;SDS011;16364;52.490;13.326;2023-06-26T05:32:45;13.17;;;11.97;;
29380;SDS011;16364;52.490;13.326;2023-06-26T05:35:11;12.63;;;10.10;;
29380;SDS011;16364;52.490;13.326;2023-06-26T05:37:38;12.10;;;11.00;;
29380;SDS011;16364;52.490;13.326;2023-06-26T05:40:03;15.07;;;10.37;;
29380;SDS011;16364;52.490;13.326;2023-06-26T05:42:30;12.30;;;11.20;;
29380;SDS011;16364;52.490;13.326;2023-06-26T05:44:55;11.50;;;10.50;;
29380;SDS011;16364;52.490;13.326;2023-06-26T05:47:20;12.57;;;11.53;;
29380;SDS011;16364;52.490;13.326;2023-06-26T05:49:45;12.37;;;11.37;;
29380;SDS011;16364;52.490;13.326;2023-06-26T05:52:11;11.57;;;10.47;;
29380;SDS011;16364;52.490;13.326;2023-06-26T05:54:36;13.07;;;11.97;;
29380;SDS011;16364;52.490;13.326;2023-06-26T05:57:02;13.17;;;12.13;;
29380;SDS011;16364;52.490;13.326;2023-06-26T05:59:28;13.73;;;12.60;;
29380;SDS011;16364;52.490;13.326;2023-06-26T06:01:54;10.70;;;9.80;;
29380;SDS011;16364;52.490;13.326;2023-06-26T06:04:20;13.40;;;11.90;;
29380;SDS011;16364;52.490;13.326;2023-06-26T06:06:45;12.03;;;11.03;;
29380;SDS011;16364;52.490;13.326;2023-06-26T06:09:10;11.13;;;9.93;;
29380;SDS011;16364;52.490;13.326;2023-06-26T06:11:35;10.10;;;9.13;;
29380;SDS011;16364;52.490;13.326;2023-06-26T06:14:02;11.73;;;10.20;;
29380;SDS011;16364;52.490;13.326;2023-06-26T06:16:27;8.80;;;8.00;;
29380;SDS011;16364;52.490;13.326;2023-06-26T06:18:56;8.97;;;8.13;;
29380;SDS011;16364;52.490;13.326;2023-06-26T06:21:21;8.33;;;7.60;;
29380;SDS011;16364;52.490;13.326;2023-06-26T06:23:46;8.87;;;8.07;;
29380;SDS011;16364;52.490;13.326;2023-06-26T06:26:11;7.80;;;7.30;;
29380;SDS011;16364;52.490;13.326;2023-06-26T06:28:37;7.57;;;6.93;;
29380;SDS011;16364;52.490;13.326;2023-06-26T06:31:02;7.43;;;6.70;;
29380;SDS011;16364;52.490;13.326;2023-06-26T06:33:28;13.33;;;8.43;;
29380;SDS011;16364;52.490;13.326;2023-06-26T06:35:53;8.80;;;8.00;;
29380;SDS011;16364;52.490;13.326;2023-06-26T06:38:18;9.20;;;8.27;;
29380;SDS011;16364;52.490;13.326;2023-06-26T06:40:43;7.60;;;6.90;;
29380;SDS011;16364;52.490;13.326;2023-06-26T06:43:09;7.80;;;7.10;;
29380;SDS011;16364;52.490;13.326;2023-06-26T06:45:34;6.87;;;6.17;;
29380;SDS011;16364;52.490;13.326;2023-06-26T06:47:59;7.20;;;6.50;;
29380;SDS011;16364;52.490;13.326;2023-06-26T06:50:25;6.73;;;6.13;;
29380;SDS011;16364;52.490;13.326;2023-06-26T06:52:50;6.63;;;6.13;;
29380;SDS011;16364;52.490;13.326;2023-06-26T06:55:15;8.30;;;7.60;;
29380;SDS011;16364;52.490;13.326;2023-06-26T06:57:40;8.60;;;7.80;;
29380;SDS011;16364;52.490;13.326;2023-06-26T07:00:09;8.80;;;8.00;;
29380;SDS011;16364;52.490;13.326;2023-06-26T07:02:35;8.50;;;7.80;;
29380;SDS011;16364;52.490;13.326;2023-06-26T07:05:01;6.50;;;6.00;;
29380;SDS011;16364;52.490;13.326;2023-06-26T07:07:28;7.97;;;7.37;;
29380;SDS011;16364;52.490;13.326;2023-06-26T07:09:53;7.73;;;7.07;;
29380;SDS011;16364;52.490;13.326;2023-06-26T07:12:18;7.73;;;7.13;;
29380;SDS011;16364;52.490;13.326;2023-06-26T07:14:44;7.40;;;6.73;;
29380;SDS011;16364;52.490;13.326;2023-06-26T07:17:09;7.87;;;7.17;;
29380;SDS011;16364;52.490;13.326;2023-06-26T07:19:34;8.90;;;7.63;;
29380;SDS011;16364;52.490;13.326;2023-06-26T07:21:59;6.27;;;5.87;;
29380;SDS011;16364;52.490;13.326;2023-06-26T07:24:24;7.50;;;6.80;;
29380;SDS011;16364;52.490;13.326;2023-06-26T07:26:50;7.90;;;7.30;;
29380;SDS011;16364;52.490;13.326;2023-06-26T07:29:15;7.27;;;6.67;;
29380;SDS011;16364;52.490;13.326;2023-06-26T07:31:40;7.90;;;7.13;;
29380;SDS011;16364;52.490;13.326;2023-06-26T07:34:05;7.30;;;6.80;;
29380;SDS011;16364;52.490;13.326;2023-06-26T07:36:31;6.57;;;6.07;;
29380;SDS011;16364;52.490;13.326;2023-06-26T07:38:56;6.37;;;5.87;;
29380;SDS011;16364;52.490;13.326;2023-06-26T07:41:21;6.23;;;5.73;;
29380;SDS011;16364;52.490;13.326;2023-06-26T07:43:46;6.40;;;6.00;;
29380;SDS011;16364;52.490;13.326;2023-06-26T07:46:12;6.33;;;5.73;;
29380;SDS011;16364;52.490;13.326;2023-06-26T07:48:37;6.47;;;6.00;;
29380;SDS011;16364;52.490;13.326;2023-06-26T07:51:02;5.60;;;5.20;;
29380;SDS011;16364;52.490;13.326;2023-06-26T07:53:27;6.03;;;5.63;;
29380;SDS011;16364;52.490;13.326;2023-06-26T07:55:52;7.97;;;6.40;;
29380;SDS011;16364;52.490;13.326;2023-06-26T07:58:18;7.43;;;6.83;;
29380;SDS011;16364;52.490;13.326;2023-06-26T08:00:43;7.37;;;6.67;;
29380;SDS011;16364;52.490;13.326;2023-06-26T08:03:08;6.23;;;5.73;;
29380;SDS011;16364;52.490;13.326;2023-06-26T08:05:33;5.40;;;4.90;;
29380;SDS011;16364;52.490;13.326;2023-06-26T08:07:59;6.07;;;5.57;;
29380;SDS011;16364;52.490;13.326;2023-06-26T08:10:26;5.30;;;4.90;;
29380;SDS011;16364;52.490;13.326;2023-06-26T08:12:52;5.53;;;5.13;;
29380;SDS011;16364;52.490;13.326;2023-06-26T08:15:17;5.30;;;5.00;;
29380;SDS011;16364;52.490;13.326;2023-06-26T08:17:43;4.77;;;4.47;;
29380;SDS011;16364;52.490;13.326;2023-06-26T08:20:08;4.97;;;4.67;;
29380;SDS011;16364;52.490;13.326;2023-06-26T08:22:33;4.90;;;4.60;;
29380;SDS011;16364;52.490;13.326;2023-06-26T08:24:59;4.57;;;4.13;;
29380;SDS011;16364;52.490;13.326;2023-06-26T08:27:24;5.27;;;4.93;;
29380;SDS011;16364;52.490;13.326;2023-06-26T08:29:49;5.47;;;5.07;;
29380;SDS011;16364;52.490;13.326;2023-06-26T08:32:14;5.03;;;4.73;;
29380;SDS011;16364;52.490;13.326;2023-06-26T08:34:40;5.90;;;4.80;;
29380;SDS011;16364;52.490;13.326;2023-06-26T08:37:05;5.00;;;4.60;;
29380;SDS011;16364;52.490;13.326;2023-06-26T08:39:30;5.30;;;4.87;;
29380;SDS011;16364;52.490;13.326;2023-06-26T08:41:56;5.43;;;5.00;;
29380;SDS011;16364;52.490;13.326;2023-06-26T08:44:21;6.87;;;5.10;;
29380;SDS011;16364;52.490;13.326;2023-06-26T08:46:49;4.47;;;4.17;;
29380;SDS011;16364;52.490;13.326;2023-06-26T08:49:18;4.97;;;4.60;;
29380;SDS011;16364;52.490;13.326;2023-06-26T08:51:45;8.27;;;4.60;;
29380;SDS011;16364;52.490;13.326;2023-06-26T08:54:14;3.97;;;3.70;;
29380;SDS011;16364;52.490;13.326;2023-06-26T08:56:41;4.27;;;3.87;;
29380;SDS011;16364;52.490;13.326;2023-06-26T08:59:08;4.30;;;4.00;;
29380;SDS011;16364;52.490;13.326;2023-06-26T09:01:35;5.03;;;4.63;;
29380;SDS011;16364;52.490;13.326;2023-06-26T09:04:00;3.33;;;3.13;;
29380;SDS011;16364;52.490;13.326;2023-06-26T09:06:25;4.60;;;4.20;;
29380;SDS011;16364;52.490;13.326;2023-06-26T09:08:51;3.60;;;3.40;;
29380;SDS011;16364;52.490;13.326;2023-06-26T09:11:16;4.17;;;3.87;;
29380;SDS011;16364;52.490;13.326;2023-06-26T09:13:42;5.57;;;5.10;;
29380;SDS011;16364;52.490;13.326;2023-06-26T09:16:08;5.40;;;5.00;;
29380;SDS011;16364;52.490;13.326;2023-06-26T09:18:34;5.10;;;4.73;;
29380;SDS011;16364;52.490;13.326;2023-06-26T09:20:59;3.97;;;3.50;;
29380;SDS011;16364;52.490;13.326;2023-06-26T09:23:24;4.60;;;4.13;;
29380;SDS011;16364;52.490;13.326;2023-06-26T09:25:50;3.63;;;3.33;;
29380;SDS011;16364;52.490;13.326;2023-06-26T09:28:16;4.13;;;3.83;;
29380;SDS011;16364;52.490;13.326;2023-06-26T09:30:41;3.33;;;3.13;;
29380;SDS011;16364;52.490;13.326;2023-06-26T09:33:16;3.80;;;3.50;;
29380;SDS011;16364;52.490;13.326;2023-06-26T09:35:47;6.93;;;3.90;;
29380;SDS011;16364;52.490;13.326;2023-06-26T09:38:12;3.97;;;3.67;;
29380;SDS011;16364;52.490;13.326;2023-06-26T09:40:38;3.70;;;3.30;;
29380;SDS011;16364;52.490;13.326;2023-06-26T09:43:04;4.17;;;3.77;;
29380;SDS011;16364;52.490;13.326;2023-06-26T09:45:30;4.60;;;3.90;;
29380;SDS011;16364;52.490;13.326;2023-06-26T09:47:58;4.13;;;3.83;;
29380;SDS011;16364;52.490;13.326;2023-06-26T09:50:24;9.23;;;3.97;;
29380;SDS011;16364;52.490;13.326;2023-06-26T09:52:51;6.73;;;3.93;;
29380;SDS011;16364;52.490;13.326;2023-06-26T09:55:17;3.67;;;3.37;;
29380;SDS011;16364;52.490;13.326;2023-06-26T09:57:44;3.70;;;3.40;;
29380;SDS011;16364;52.490;13.326;2023-06-26T10:00:10;5.30;;;4.80;;
29380;SDS011;16364;52.490;13.326;2023-06-26T10:02:37;4.40;;;4.10;;
29380;SDS011;16364;52.490;13.326;2023-06-26T10:05:02;4.50;;;4.20;;
29380;SDS011;16364;52.490;13.326;2023-06-26T10:07:28;4.47;;;4.07;;
29380;SDS011;16364;52.490;13.326;2023-06-26T10:09:53;3.90;;;3.70;;
29380;SDS011;16364;52.490;13.326;2023-06-26T10:12:38;4.90;;;4.50;;
29380;SDS011;16364;52.490;13.326;2023-06-26T10:15:03;4.37;;;4.07;;
29380;SDS011;16364;52.490;13.326;2023-06-26T10:17:30;3.87;;;3.57;;
29380;SDS011;16364;52.490;13.326;2023-06-26T10:19:58;24.10;;;6.20;;
29380;SDS011;16364;52.490;13.326;2023-06-26T10:22:24;4.63;;;3.97;;
29380;SDS011;16364;52.490;13.326;2023-06-26T10:24:52;3.50;;;3.30;;
29380;SDS011;16364;52.490;13.326;2023-06-26T10:27:21;3.57;;;3.33;;
29380;SDS011;16364;52.490;13.326;2023-06-26T10:29:47;3.73;;;3.50;;
29380;SDS011;16364;52.490;13.326;2023-06-26T10:32:13;3.33;;;3.13;;
29380;SDS011;16364;52.490;13.326;2023-06-26T10:34:39;4.30;;;3.83;;
29380;SDS011;16364;52.490;13.326;2023-06-26T10:37:05;3.30;;;3.10;;
29380;SDS011;16364;52.490;13.326;2023-06-26T10:39:45;3.43;;;3.23;;
29380;SDS011;16364;52.490;13.326;2023-06-26T10:42:10;3.90;;;3.60;;
29380;SDS011;16364;52.490;13.326;2023-06-26T10:44:45;4.33;;;3.93;;
29380;SDS011;16364;52.490;13.326;2023-06-26T10:47:11;4.60;;;4.20;;
29380;SDS011;16364;52.490;13.326;2023-06-26T10:49:37;3.63;;;3.43;;
29380;SDS011;16364;52.490;13.326;2023-06-26T10:52:04;4.23;;;3.93;;
29380;SDS011;16364;52.490;13.326;2023-06-26T10:54:31;4.10;;;3.80;;
29380;SDS011;16364;52.490;13.326;2023-06-26T10:56:56;3.80;;;3.60;;
29380;SDS011;16364;52.490;13.326;2023-06-26T10:59:22;3.93;;;3.73;;
29380;SDS011;16364;52.490;13.326;2023-06-26T11:01:54;3.87;;;3.57;;
29380;SDS011;16364;52.490;13.326;2023-06-26T11:04:35;4.37;;;3.97;;
29380;SDS011;16364;52.490;13.326;2023-06-26T11:13:02;4.13;;;3.83;;
29380;SDS011;16364;52.490;13.326;2023-06-26T11:15:12;3.33;;;3.13;;
29380;SDS011;16364;52.490;13.326;2023-06-26T11:17:38;4.17;;;3.97;;
29380;SDS011;16364;52.490;13.326;2023-06-26T11:20:07;4.50;;;3.80;;
29380;SDS011;16364;52.490;13.326;2023-06-26T11:22:36;4.70;;;4.40;;
29380;SDS011;16364;52.490;13.326;2023-06-26T11:25:01;4.17;;;3.67;;
29380;SDS011;16364;52.490;13.326;2023-06-26T11:27:31;7.43;;;4.30;;
29380;SDS011;16364;52.490;13.326;2023-06-26T11:29:57;4.07;;;3.87;;
29380;SDS011;16364;52.490;13.326;2023-06-26T11:32:22;3.87;;;3.60;;
29380;SDS011;16364;52.490;13.326;2023-06-26T11:34:47;4.20;;;3.80;;
29380;SDS011;16364;52.490;13.326;2023-06-26T11:37:16;3.73;;;3.53;;
29380;SDS011;16364;52.490;13.326;2023-06-26T11:39:41;4.40;;;4.10;;
29380;SDS011;16364;52.490;13.326;2023-06-26T11:42:06;3.93;;;3.63;;
29380;SDS011;16364;52.490;13.326;2023-06-26T11:44:31;4.80;;;4.50;;
29380;SDS011;16364;52.490;13.326;2023-06-26T11:46:57;4.57;;;4.27;;
29380;SDS011;16364;52.490;13.326;2023-06-26T11:49:23;4.23;;;3.93;;
29380;SDS011;16364;52.490;13.326;2023-06-26T11:51:50;4.20;;;3.90;;
29380;SDS011;16364;52.490;13.326;2023-06-26T11:54:16;4.67;;;4.27;;
29380;SDS011;16364;52.490;13.326;2023-06-26T11:56:54;3.77;;;3.50;;
29380;SDS011;16364;52.490;13.326;2023-06-26T11:59:21;6.23;;;4.43;;
29380;SDS011;16364;52.490;13.326;2023-06-26T12:01:48;4.80;;;4.40;;
29380;SDS011;16364;52.490;13.326;2023-06-26T12:04:15;4.60;;;4.20;;
29380;SDS011;16364;52.490;13.326;2023-06-26T12:06:42;4.57;;;4.37;;
29380;SDS011;16364;52.490;13.326;2023-06-26T12:09:09;4.90;;;4.50;;
29380;SDS011;16364;52.490;13.326;2023-06-26T12:11:36;4.60;;;4.00;;
29380;SDS011;16364;52.490;13.326;2023-06-26T12:14:01;4.30;;;3.90;;
29380;SDS011;16364;52.490;13.326;2023-06-26T12:16:28;4.37;;;4.07;;
29380;SDS011;16364;52.490;13.326;2023-06-26T12:19:03;4.23;;;3.93;;
29380;SDS011;16364;52.490;13.326;2023-06-26T12:24:07;4.53;;;4.20;;
29380;SDS011;16364;52.490;13.326;2023-06-26T12:26:32;4.90;;;4.40;;
29380;SDS011;16364;52.490;13.326;2023-06-26T12:29:07;5.40;;;4.30;;
29380;SDS011;16364;52.490;13.326;2023-06-26T12:31:32;5.17;;;4.70;;
29380;SDS011;16364;52.490;13.326;2023-06-26T12:33:58;4.40;;;4.10;;
29380;SDS011;16364;52.490;13.326;2023-06-26T12:36:24;4.97;;;4.57;;
29380;SDS011;16364;52.490;13.326;2023-06-26T12:38:49;4.60;;;4.30;;
29380;SDS011;16364;52.490;13.326;2023-06-26T12:41:15;5.07;;;4.67;;
29380;SDS011;16364;52.490;13.326;2023-06-26T12:43:41;4.80;;;4.50;;
29380;SDS011;16364;52.490;13.326;2023-06-26T12:46:06;6.07;;;5.57;;
29380;SDS011;16364;52.490;13.326;2023-06-26T12:48:38;5.20;;;4.90;;
29380;SDS011;16364;52.490;13.326;2023-06-26T12:51:09;5.77;;;5.37;;
29380;SDS011;16364;52.490;13.326;2023-06-26T12:53:34;5.40;;;5.10;;
29380;SDS011;16364;52.490;13.326;2023-06-26T12:56:00;5.47;;;5.17;;
29380;SDS011;16364;52.490;13.326;2023-06-26T12:58:25;6.37;;;5.90;;
29380;SDS011;16364;52.490;13.326;2023-06-26T13:00:50;5.10;;;4.70;;
29380;SDS011;16364;52.490;13.326;2023-06-26T13:03:15;6.17;;;5.77;;
29380;SDS011;16364;52.490;13.326;2023-06-26T13:05:41;5.67;;;5.27;;
29380;SDS011;16364;52.490;13.326;2023-06-26T13:08:06;5.70;;;5.40;;
29380;SDS011;16364;52.490;13.326;2023-06-26T13:10:33;5.47;;;5.17;;
29380;SDS011;16364;52.490;13.326;2023-06-26T13:12:58;5.60;;;5.30;;
29380;SDS011;16364;52.490;13.326;2023-06-26T13:15:23;5.23;;;4.93;;
29380;SDS011;16364;52.490;13.326;2023-06-26T13:17:48;6.07;;;5.67;;
29380;SDS011;16364;52.490;13.326;2023-06-26T13:20:14;5.53;;;5.13;;
29380;SDS011;16364;52.490;13.326;2023-06-26T13:22:39;5.77;;;5.30;;
29380;SDS011;16364;52.490;13.326;2023-06-26T13:25:04;5.10;;;4.80;;
29380;SDS011;16364;52.490;13.326;2023-06-26T13:27:30;6.70;;;6.00;;
29380;SDS011;16364;52.490;13.326;2023-06-26T13:29:55;5.67;;;5.27;;
29380;SDS011;16364;52.490;13.326;2023-06-26T13:32:20;6.33;;;5.80;;
29380;SDS011;16364;52.490;13.326;2023-06-26T13:34:45;6.47;;;6.07;;
29380;SDS011;16364;52.490;13.326;2023-06-26T13:37:11;6.70;;;6.20;;
29380;SDS011;16364;52.490;13.326;2023-06-26T13:39:36;6.00;;;5.50;;
29380;SDS011;16364;52.490;13.326;2023-06-26T13:42:02;7.20;;;6.03;;
29380;SDS011;16364;52.490;13.326;2023-06-26T13:44:27;5.87;;;5.37;;
29380;SDS011;16364;52.490;13.326;2023-06-26T13:46:52;6.60;;;6.20;;
29380;SDS011;16364;52.490;13.326;2023-06-26T13:49:18;5.60;;;5.03;;
29380;SDS011;16364;52.490;13.326;2023-06-26T13:51:43;5.60;;;5.30;;
29380;SDS011;16364;52.490;13.326;2023-06-26T13:54:12;5.27;;;4.97;;
29380;SDS011;16364;52.490;13.326;2023-06-26T13:56:37;5.70;;;5.40;;
29380;SDS011;16364;52.490;13.326;2023-06-26T13:59:02;5.50;;;5.20;;
29380;SDS011;16364;52.490;13.326;2023-06-26T14:01:28;4.87;;;4.57;;
29380;SDS011;16364;52.490;13.326;2023-06-26T14:03:53;5.50;;;5.10;;
29380;SDS011;16364;52.490;13.326;2023-06-26T14:06:18;6.57;;;6.17;;
29380;SDS011;16364;52.490;13.326;2023-06-26T14:08:43;8.57;;;7.70;;
29380;SDS011;16364;52.490;13.326;2023-06-26T14:11:09;6.67;;;6.07;;
29380;SDS011;16364;52.490;13.326;2023-06-26T14:13:34;5.83;;;5.23;;
29380;SDS011;16364;52.490;13.326;2023-06-26T14:16:00;8.90;;;4.80;;
29380;SDS011;16364;52.490;13.326;2023-06-26T14:18:25;12.03;;;6.87;;
29380;SDS011;16364;52.490;13.326;2023-06-26T14:20:50;9.43;;;4.67;;
29380;SDS011;16364;52.490;13.326;2023-06-26T14:23:15;10.43;;;5.70;;
29380;SDS011;16364;52.490;13.326;2023-06-26T14:25:40;10.93;;;4.87;;
29380;SDS011;16364;52.490;13.326;2023-06-26T14:28:06;7.80;;;4.53;;
29380;SDS011;16364;52.490;13.326;2023-06-26T14:30:31;19.87;;;8.20;;